createdAt,value
2019-05-29T00:01:20.377Z,100124.14
2019-05-29T00:03:45.639Z,100120.46
2019-05-29T00:06:12.655Z,100131.76
2019-05-29T00:08:40.830Z,100135.19
2019-05-29T00:11:08.061Z,100127.36
2019-05-29T00:13:35.162Z,100132.33
2019-05-29T00:16:02.232Z,100133.93
2019-05-29T00:18:29.649Z,100131.34
2019-05-29T00:20:56.817Z,100133.04
2019-05-29T00:23:23.994Z,100139.98
2019-05-29T00:25:51.203Z,100141.92
2019-05-29T00:28:18.326Z,100149.57
2019-05-29T00:30:45.896Z,100149.80
2019-05-29T00:33:14.308Z,100153.00
2019-05-29T00:35:41.776Z,100160.54
2019-05-29T00:38:10.703Z,100162.08
2019-05-29T00:40:39.067Z,100167.53
2019-05-29T00:43:07.332Z,100167.92
2019-05-29T00:45:37.274Z,100172.20
2019-05-29T00:48:04.326Z,100175.94
2019-05-29T00:50:31.421Z,100170.78
2019-05-29T00:53:00.058Z,100179.16
2019-05-29T00:55:27.307Z,100176.23
2019-05-29T00:57:54.391Z,100181.09
2019-05-29T01:00:21.644Z,100181.69
2019-05-29T01:02:52.441Z,100184.62
2019-05-29T01:05:20.180Z,100193.55
2019-05-29T01:07:49.012Z,100188.60
2019-05-29T01:10:16.793Z,100197.88
2019-05-29T01:12:43.768Z,100189.87
2019-05-29T01:15:13.332Z,100197.45
2019-05-29T01:17:40.743Z,100196.55
2019-05-29T01:20:07.748Z,100211.45
2019-05-29T01:22:34.829Z,100211.58
2019-05-29T01:25:01.921Z,100211.60
2019-05-29T01:27:28.950Z,100219.60
2019-05-29T01:29:56.003Z,100217.32
2019-05-29T01:32:24.529Z,100218.52
2019-05-29T01:34:51.693Z,100222.59
2019-05-29T01:37:19.934Z,100222.12
2019-05-29T01:39:48.044Z,100222.34
2019-05-29T01:42:15.220Z,100230.35
2019-05-29T01:44:42.358Z,100228.15
2019-05-29T01:47:09.602Z,100233.58
2019-05-29T01:49:38.454Z,100240.16
2019-05-29T01:52:05.539Z,100242.55
2019-05-29T01:54:32.644Z,100235.61
2019-05-29T01:56:59.980Z,100240.80
2019-05-29T01:59:28.818Z,100246.20
2019-05-29T02:01:56.104Z,100252.14
2019-05-29T02:04:24.203Z,100254.30
2019-05-29T02:06:51.505Z,100261.91
2019-05-29T02:09:18.633Z,100260.81
2019-05-29T02:11:45.787Z,100273.34
2019-05-29T02:14:12.829Z,100276.47
2019-05-29T02:16:39.916Z,100279.80
2019-05-29T02:19:09.143Z,100280.84
2019-05-29T02:21:37.340Z,100283.96
2019-05-29T02:24:04.509Z,100286.70
2019-05-29T02:26:32.884Z,100286.61
2019-05-29T02:28:59.935Z,100289.54
2019-05-29T02:31:29.796Z,100286.83
2019-05-29T02:33:56.834Z,100290.20
2019-05-29T02:36:24.602Z,100288.52
2019-05-29T02:38:52.314Z,100290.55
2019-05-29T02:41:21.172Z,100298.30
2019-05-29T02:43:50.194Z,100295.72
2019-05-29T02:46:17.244Z,100302.84
2019-05-29T02:48:44.275Z,100304.42
2019-05-29T02:51:12.345Z,100300.38
2019-05-29T02:53:39.671Z,100304.48
2019-05-29T02:56:06.724Z,100303.20
2019-05-29T02:58:33.801Z,100308.61
2019-05-29T03:01:02.782Z,100313.33
2019-05-29T03:03:37.998Z,100317.25
2019-05-29T03:05:59.345Z,100318.00
2019-05-29T03:08:27.663Z,100321.56
2019-05-29T03:10:55.444Z,100318.00
2019-05-29T03:13:25.468Z,100323.06
2019-05-29T03:16:08.504Z,100326.88
2019-05-29T03:18:23.774Z,100330.25
2019-05-29T03:20:50.884Z,100333.27
2019-05-29T03:23:19.885Z,100339.04
2019-05-29T03:25:46.900Z,100340.49
2019-05-29T03:28:15.077Z,100341.64
2019-05-29T03:30:46.103Z,100348.09
2019-05-29T03:33:11.765Z,100353.27
2019-05-29T03:35:47.099Z,100357.86
2019-05-29T03:38:07.963Z,100356.56
2019-05-29T03:40:35.324Z,100366.63
2019-05-29T03:43:02.715Z,100371.47
2019-05-29T03:45:31.329Z,100370.55
2019-05-29T03:47:58.694Z,100383.39
2019-05-29T03:50:26.676Z,100378.25
2019-05-29T03:52:54.774Z,100379.41
2019-05-29T03:55:21.805Z,100374.80
2019-05-29T03:57:48.844Z,100372.51
2019-05-29T04:00:16.095Z,100382.45
2019-05-29T04:02:43.143Z,100380.61
2019-05-29T04:05:11.164Z,100391.59
2019-05-29T04:07:38.600Z,100391.45
2019-05-29T04:10:07.273Z,100395.09
2019-05-29T04:12:38.076Z,100399.56
2019-05-29T04:15:05.925Z,100409.59
2019-05-29T04:17:35.679Z,100418.68
2019-05-29T04:20:03.961Z,100415.05
2019-05-29T04:22:40.440Z,100421.81
2019-05-29T04:25:08.225Z,100422.77
2019-05-29T04:27:38.667Z,100425.56
2019-05-29T04:30:06.123Z,100439.08
2019-05-29T04:32:34.192Z,100445.66
2019-05-29T04:35:01.555Z,100441.91
2019-05-29T04:37:30.151Z,100447.76
2019-05-29T04:39:57.684Z,100448.71
2019-05-29T04:42:24.973Z,100450.20
2019-05-29T04:44:53.841Z,100452.67
2019-05-29T04:47:21.974Z,100460.77
2019-05-29T04:49:50.111Z,100465.95
2019-05-29T04:52:17.176Z,100468.89
2019-05-29T04:54:44.308Z,100472.09
2019-05-29T04:57:11.344Z,100473.39
2019-05-29T04:59:39.240Z,100476.16
2019-05-29T05:02:06.460Z,100480.52
2019-05-29T05:04:37.264Z,100489.42
2019-05-29T05:07:04.502Z,100488.49
2019-05-29T05:09:33.428Z,100491.24
2019-05-29T05:12:04.157Z,100495.05
2019-05-29T05:14:31.747Z,100488.11
2019-05-29T05:16:59.194Z,100489.61
2019-05-29T05:19:31.794Z,100494.53
2019-05-29T05:21:59.168Z,100491.02
2019-05-29T05:24:27.693Z,100493.70
2019-05-29T05:26:54.918Z,100498.02
2019-05-29T05:29:22.929Z,100502.84
2019-05-29T05:31:50.181Z,100501.17
2019-05-29T05:34:17.216Z,100507.02
2019-05-29T05:36:50.390Z,100502.48
2019-05-29T05:39:31.203Z,100517.75
2019-05-29T05:41:58.282Z,100523.34
2019-05-29T05:44:25.529Z,100520.36
2019-05-29T05:46:52.946Z,100532.10
2019-05-29T05:49:20.023Z,100542.92
2019-05-29T05:51:47.074Z,100543.98
2019-05-29T05:54:14.598Z,100557.53
2019-05-29T05:56:42.114Z,100553.48
2019-05-29T05:59:10.239Z,100559.48
2019-05-29T06:01:38.402Z,100561.89
2019-05-29T06:04:05.574Z,100564.63
2019-05-29T06:06:33.841Z,100569.78
2019-05-29T06:09:00.937Z,100575.28
2019-05-29T06:11:28.151Z,100575.42
2019-05-29T06:13:55.195Z,100578.12
2019-05-29T06:16:22.303Z,100572.00
2019-05-29T06:18:49.419Z,100586.79
2019-05-29T06:21:16.497Z,100581.61
2019-05-29T06:23:43.854Z,100587.52
2019-05-29T06:26:12.216Z,100586.75
2019-05-29T06:28:41.629Z,100586.92
2019-05-29T06:31:09.061Z,100587.77
2019-05-29T06:33:37.845Z,100587.17
2019-05-29T06:36:05.261Z,100597.08
2019-05-29T06:38:33.632Z,100598.39
2019-05-29T06:41:04.041Z,100604.57
2019-05-29T06:43:35.819Z,100604.84
2019-05-29T06:46:03.954Z,100595.81
2019-05-29T06:48:42.586Z,100609.20
2019-05-29T06:51:04.043Z,100606.20
2019-05-29T06:53:31.214Z,100599.53
2019-05-29T06:56:01.055Z,100606.75
2019-05-29T06:58:31.821Z,100608.34
2019-05-29T07:01:00.455Z,100616.00
2019-05-29T07:03:29.778Z,100615.45
2019-05-29T07:05:58.766Z,100616.19
2019-05-29T07:08:39.109Z,100616.62
2019-05-29T07:11:00.740Z,100616.31
2019-05-29T07:13:35.181Z,100624.95
2019-05-29T07:16:02.327Z,100625.95
2019-05-29T07:18:38.986Z,100636.20
2019-05-29T07:21:07.745Z,100628.61
2019-05-29T07:23:39.063Z,100629.65
2019-05-29T07:26:11.320Z,100637.11
2019-05-29T07:29:03.044Z,100634.67
2019-05-29T07:31:16.548Z,100640.90
2019-05-29T07:33:43.678Z,100648.81
2019-05-29T07:36:11.064Z,100648.20
2019-05-29T07:38:39.558Z,100650.81
2019-05-29T07:41:06.943Z,100657.26
2019-05-29T07:43:33.973Z,100660.50
2019-05-29T07:46:01.151Z,100665.47
2019-05-29T07:48:28.192Z,100667.97
2019-05-29T07:51:06.586Z,100667.38
2019-05-29T07:53:24.340Z,100673.84
2019-05-29T07:55:51.416Z,100671.34
2019-05-29T07:58:18.494Z,100664.00
2019-05-29T08:01:07.680Z,100662.77
2019-05-29T08:03:14.711Z,100673.29
2019-05-29T08:05:46.201Z,100666.47
2019-05-29T08:08:13.512Z,100664.35
2019-05-29T08:10:41.746Z,100665.16
2019-05-29T08:13:09.082Z,100673.67
2019-05-29T08:15:51.970Z,100685.75
2019-05-29T08:18:05.993Z,100684.81
2019-05-29T08:20:33.052Z,100684.45
2019-05-29T08:23:00.098Z,100671.94
2019-05-29T08:25:27.164Z,100681.78
2019-05-29T08:27:54.789Z,100680.92
2019-05-29T08:30:26.309Z,100683.03
2019-05-29T08:32:56.581Z,100691.98
2019-05-29T08:35:23.865Z,100685.84
2019-05-29T08:37:53.892Z,100687.58
2019-05-29T08:40:21.316Z,100691.30
2019-05-29T08:42:49.315Z,100688.13
2019-05-29T08:45:16.474Z,100695.64
2019-05-29T08:47:43.595Z,100698.08
2019-05-29T08:50:18.309Z,100697.76
2019-05-29T08:52:39.617Z,100702.12
2019-05-29T08:55:07.470Z,100693.98
2019-05-29T08:57:34.520Z,100704.36
2019-05-29T09:00:01.719Z,100703.56
2019-05-29T09:02:28.967Z,100710.55
2019-05-29T09:04:56.013Z,100703.70
2019-05-29T09:07:24.654Z,100703.66
2019-05-29T09:09:51.713Z,100707.97
2019-05-29T09:12:18.814Z,100705.91
2019-05-29T09:14:45.893Z,100700.12
2019-05-29T09:17:14.621Z,100717.27
2019-05-29T09:19:41.892Z,100707.46
2019-05-29T09:22:09.227Z,100714.56
2019-05-29T09:24:36.377Z,100715.32
2019-05-29T09:27:03.473Z,100714.11
2019-05-29T09:29:30.637Z,100717.70
2019-05-29T09:31:57.663Z,100716.29
2019-05-29T09:34:24.770Z,100709.97
2019-05-29T09:36:55.483Z,100718.78
2019-05-29T09:39:21.093Z,100721.58
2019-05-29T09:41:48.287Z,100719.28
2019-05-29T09:44:31.167Z,100722.50
2019-05-29T09:46:45.660Z,100724.64
2019-05-29T09:49:13.057Z,100731.17
2019-05-29T09:51:40.310Z,100729.56
2019-05-29T09:54:07.498Z,100732.09
2019-05-29T09:56:34.519Z,100724.91
2019-05-29T09:59:01.831Z,100739.14
2019-05-29T10:01:30.548Z,100731.63
2019-05-29T10:04:00.044Z,100738.14
2019-05-29T10:06:28.362Z,100731.16
2019-05-29T10:08:56.223Z,100739.52
2019-05-29T10:11:23.929Z,100739.72
2019-05-29T10:13:50.982Z,100744.33
2019-05-29T10:16:18.009Z,100745.77
2019-05-29T10:18:45.280Z,100738.34
2019-05-29T10:21:13.471Z,100741.11
2019-05-29T10:23:40.598Z,100744.29
2019-05-29T10:26:07.865Z,100739.78
2019-05-29T10:28:49.961Z,100741.87
2019-05-29T10:31:04.880Z,100749.98
2019-05-29T10:33:32.185Z,100745.87
2019-05-29T10:36:03.447Z,100740.96
2019-05-29T10:38:28.373Z,100747.43
2019-05-29T10:41:05.840Z,100739.94
2019-05-29T10:43:34.169Z,100745.63
2019-05-29T10:45:55.272Z,100742.08
2019-05-29T10:48:22.626Z,100739.67
2019-05-29T10:50:52.165Z,100741.56
2019-05-29T10:53:20.523Z,100740.80
2019-05-29T10:55:48.597Z,100732.68
2019-05-29T10:58:15.909Z,100735.92
2019-05-29T11:00:45.414Z,100737.03
2019-05-29T11:03:12.629Z,100740.67
2019-05-29T11:05:39.695Z,100739.61
2019-05-29T11:08:06.733Z,100743.59
2019-05-29T11:10:33.796Z,100740.93
2019-05-29T11:13:00.891Z,100737.92
2019-05-29T11:15:27.931Z,100740.60
2019-05-29T11:17:55.396Z,100739.58
2019-05-29T11:20:22.642Z,100731.99
2019-05-29T11:22:49.772Z,100729.14
2019-05-29T11:25:23.586Z,100726.70
2019-05-29T11:27:50.501Z,100729.80
2019-05-29T11:30:17.951Z,100738.05
2019-05-29T11:32:47.513Z,100735.83
2019-05-29T11:35:14.156Z,100732.59
2019-05-29T11:37:41.214Z,100739.88
2019-05-29T11:40:08.578Z,100739.73
2019-05-29T11:42:35.916Z,100745.56
2019-05-29T11:45:05.006Z,100733.82
2019-05-29T11:47:34.056Z,100740.29
2019-05-29T11:50:16.617Z,100737.53
2019-05-29T11:52:42.952Z,100743.84
2019-05-29T11:55:08.114Z,100745.61
2019-05-29T11:57:39.748Z,100738.93
2019-05-29T12:00:19.407Z,100734.95
2019-05-29T12:02:39.813Z,100725.78
2019-05-29T12:05:09.213Z,100724.83
2019-05-29T12:07:36.284Z,100738.27
2019-05-29T12:10:05.617Z,100734.37
2019-05-29T12:12:34.135Z,100736.72
2019-05-29T12:15:10.957Z,100725.41
2019-05-29T12:17:32.517Z,100732.64
2019-05-29T12:20:01.187Z,100732.17
2019-05-29T12:22:28.746Z,100732.97
2019-05-29T12:24:56.534Z,100727.31
2019-05-29T12:27:25.297Z,100722.91
2019-05-29T12:29:52.673Z,100715.38
2019-05-29T12:32:19.764Z,100721.27
2019-05-29T12:34:53.617Z,100723.94
2019-05-29T12:37:17.530Z,100722.03
2019-05-29T12:39:44.616Z,100727.94
2019-05-29T12:42:11.702Z,100725.06
2019-05-29T12:44:38.777Z,100724.88
2019-05-29T12:47:06.536Z,100730.92
2019-05-29T12:49:33.899Z,100727.17
2019-05-29T12:52:02.362Z,100721.46
2019-05-29T12:54:30.236Z,100729.34
2019-05-29T12:56:57.861Z,100721.39
2019-05-29T12:59:25.864Z,100723.30
2019-05-29T13:01:58.505Z,100721.61
2019-05-29T13:05:02.536Z,100723.38
2019-05-29T13:07:04.575Z,100724.28
2019-05-29T13:09:31.853Z,100724.55
2019-05-29T13:11:58.909Z,100720.65
2019-05-29T13:14:27.755Z,100721.70
2019-05-29T13:16:54.998Z,100727.01
2019-05-29T13:19:22.035Z,100725.48
2019-05-29T13:21:49.203Z,100718.45
2019-05-29T13:24:16.381Z,100714.35
2019-05-29T13:26:44.337Z,100715.70
2019-05-29T13:29:11.388Z,100715.03
2019-05-29T13:31:38.574Z,100713.08
2019-05-29T13:34:09.200Z,100714.53
2019-05-29T13:36:36.327Z,100711.33
2019-05-29T13:39:07.173Z,100711.40
2019-05-29T13:41:34.340Z,100721.45
2019-05-29T13:44:02.769Z,100720.69
2019-05-29T13:46:31.358Z,100720.08
2019-05-29T13:48:58.906Z,100725.66
2019-05-29T13:51:26.449Z,100723.79
2019-05-29T13:54:04.782Z,100713.42
2019-05-29T13:56:24.363Z,100719.11
2019-05-29T13:58:51.562Z,100712.44
2019-05-29T14:01:18.652Z,100711.58
2019-05-29T14:03:50.205Z,100707.67
2019-05-29T14:06:14.708Z,100711.23
2019-05-29T14:08:41.803Z,100707.97
2019-05-29T14:11:09.163Z,100716.36
2019-05-29T14:13:42.544Z,100712.75
2019-05-29T14:16:09.720Z,100712.04
2019-05-29T14:18:47.448Z,100710.55
2019-05-29T14:21:14.640Z,100713.73
2019-05-29T14:23:42.188Z,100708.77
2019-05-29T14:26:10.615Z,100711.84
2019-05-29T14:28:38.742Z,100709.47
2019-05-29T14:31:06.027Z,100706.23
2019-05-29T14:33:35.140Z,100708.20
2019-05-29T14:36:03.434Z,100713.20
2019-05-29T14:38:30.797Z,100709.04
2019-05-29T14:40:57.882Z,100710.81
2019-05-29T14:43:28.080Z,100704.30
2019-05-29T14:45:57.029Z,100711.08
2019-05-29T14:48:24.454Z,100709.91
2019-05-29T14:50:51.558Z,100713.17
2019-05-29T14:53:18.620Z,100711.59
2019-05-29T14:55:52.568Z,100715.95
2019-05-29T14:58:20.241Z,100715.66
2019-05-29T15:00:47.332Z,100712.28
2019-05-29T15:03:14.419Z,100717.06
2019-05-29T15:05:44.224Z,100715.92
2019-05-29T15:08:14.176Z,100718.16
2019-05-29T15:10:41.361Z,100713.43
2019-05-29T15:13:09.171Z,100719.42
2019-05-29T15:15:37.378Z,100715.56
2019-05-29T15:18:06.872Z,100716.22
2019-05-29T15:20:34.175Z,100728.67
2019-05-29T15:23:02.521Z,100727.97
2019-05-29T15:25:31.332Z,100727.70
2019-05-29T15:27:58.423Z,100723.77
2019-05-29T15:30:25.462Z,100721.42
2019-05-29T15:32:52.605Z,100729.63
2019-05-29T15:35:20.218Z,100727.20
2019-05-29T15:37:47.544Z,100735.86
2019-05-29T15:40:15.094Z,100727.88
2019-05-29T15:42:42.140Z,100726.78
2019-05-29T15:45:11.894Z,100731.19
2019-05-29T15:47:41.210Z,100735.48
2019-05-29T15:50:11.379Z,100731.97
2019-05-29T15:52:38.723Z,100731.58
2019-05-29T15:55:22.012Z,100729.61
2019-05-29T15:57:36.848Z,100735.92
2019-05-29T16:00:05.050Z,100729.70
2019-05-29T16:02:32.630Z,100730.25
2019-05-29T16:04:59.759Z,100735.95
2019-05-29T16:07:27.609Z,100730.52
2019-05-29T16:09:54.646Z,100733.55
2019-05-29T16:12:21.724Z,100734.90
2019-05-29T16:14:50.643Z,100740.09
2019-05-29T16:17:17.891Z,100727.64
2019-05-29T16:19:45.117Z,100736.70
2019-05-29T16:22:12.497Z,100744.72
2019-05-29T16:24:39.662Z,100732.92
2019-05-29T16:27:10.616Z,100729.80
2019-05-29T16:29:38.829Z,100727.92
2019-05-29T16:32:05.953Z,100729.33
2019-05-29T16:34:33.096Z,100726.20
2019-05-29T16:37:00.304Z,100727.23
2019-05-29T16:39:27.430Z,100729.56
2019-05-29T16:41:56.362Z,100728.87
2019-05-29T16:44:29.215Z,100731.85
2019-05-29T16:46:52.789Z,100727.72
2019-05-29T16:49:21.267Z,100730.83
2019-05-29T16:51:48.940Z,100735.36
2019-05-29T16:54:17.197Z,100744.02
2019-05-29T16:56:44.367Z,100743.25
2019-05-29T16:59:11.436Z,100746.34
2019-05-29T17:01:38.483Z,100742.89
2019-05-29T17:04:05.589Z,100735.61
2019-05-29T17:06:32.666Z,100748.72
2019-05-29T17:09:01.545Z,100747.91
2019-05-29T17:11:31.999Z,100752.12
2019-05-29T17:14:08.598Z,100748.70
2019-05-29T17:16:54.614Z,100753.08
2019-05-29T17:19:23.161Z,100757.86
2019-05-29T17:21:51.590Z,100755.86
2019-05-29T17:24:18.762Z,100754.08
2019-05-29T17:26:45.943Z,100760.56
2019-05-29T17:29:13.000Z,100762.95
2019-05-29T17:31:40.577Z,100769.30
2019-05-29T17:34:08.699Z,100763.34
2019-05-29T17:36:35.865Z,100766.94
2019-05-29T17:39:05.969Z,100770.72
2019-05-29T17:41:33.429Z,100775.00
2019-05-29T17:44:00.534Z,100776.21
2019-05-29T17:46:27.637Z,100771.13
2019-05-29T17:48:56.393Z,100767.50
2019-05-29T17:51:24.163Z,100770.64
2019-05-29T17:53:51.357Z,100770.80
2019-05-29T17:56:31.754Z,100774.28
2019-05-29T17:58:50.902Z,100776.84
2019-05-29T18:01:18.263Z,100775.94
2019-05-29T18:03:45.534Z,100776.75
2019-05-29T18:06:12.677Z,100783.92
2019-05-29T18:08:41.659Z,100777.88
2019-05-29T18:11:10.485Z,100787.53
2019-05-29T18:13:38.993Z,100776.60
2019-05-29T18:16:06.532Z,100782.02
2019-05-29T18:21:14.900Z,100776.78
2019-05-29T18:23:42.002Z,100789.28
2019-05-29T18:26:09.260Z,100794.19
2019-05-29T18:28:37.509Z,100790.55
2019-05-29T18:31:04.556Z,100790.30
2019-05-29T18:33:33.222Z,100804.04
2019-05-29T18:36:00.776Z,100799.65
2019-05-29T18:38:30.815Z,100802.48
2019-05-29T18:40:57.928Z,100807.02
2019-05-29T18:43:25.016Z,100810.19
2019-05-29T18:45:52.433Z,100807.48
2019-05-29T18:48:19.508Z,100811.94
2019-05-29T18:50:46.809Z,100807.66
2019-05-29T18:53:14.494Z,100809.97
2019-05-29T18:55:41.889Z,100813.55
2019-05-29T18:58:08.993Z,100812.12
2019-05-29T19:00:37.361Z,100819.86
2019-05-29T19:03:05.183Z,100822.14
2019-05-29T19:05:32.554Z,100830.34
2019-05-29T19:07:59.653Z,100828.12
2019-05-29T19:10:27.753Z,100834.35
2019-05-29T19:12:55.341Z,100844.14
2019-05-29T19:15:23.754Z,100842.69
2019-05-29T19:17:51.253Z,100844.64
2019-05-29T19:20:18.852Z,100849.25
2019-05-29T19:22:45.935Z,100851.97
2019-05-29T19:25:15.962Z,100855.03
2019-05-29T19:27:47.228Z,100863.48
2019-05-29T19:30:15.905Z,100865.80
2019-05-29T19:32:43.220Z,100873.67
2019-05-29T19:35:12.903Z,100877.98
2019-05-29T19:37:41.985Z,100881.89
2019-05-29T19:40:09.575Z,100883.47
2019-05-29T19:42:37.606Z,100890.97
2019-05-29T19:45:16.567Z,100899.44
2019-05-29T19:48:08.635Z,100897.03
2019-05-29T19:50:41.623Z,100903.55
2019-05-29T19:53:09.170Z,100907.63
2019-05-29T19:55:39.449Z,100918.67
2019-05-29T19:58:08.477Z,100923.67
2019-05-29T20:00:56.493Z,100928.97
2019-05-29T20:03:23.607Z,100929.52
2019-05-29T20:05:52.970Z,100932.13
2019-05-29T20:08:24.177Z,100935.13
2019-05-29T20:10:51.601Z,100938.21
2019-05-29T20:13:22.426Z,100935.46
2019-05-29T20:15:49.742Z,100938.92
2019-05-29T20:18:16.923Z,100947.30
2019-05-29T20:20:47.009Z,100947.78
2019-05-29T20:23:14.431Z,100952.02
2019-05-29T20:25:41.895Z,100952.65
2019-05-29T20:28:11.762Z,100948.02
2019-05-29T20:30:42.511Z,100955.60
2019-05-29T20:33:10.068Z,100958.47
2019-05-29T20:35:37.330Z,100966.97
2019-05-29T20:38:07.539Z,100963.56
2019-05-29T20:40:35.166Z,100968.13
2019-05-29T20:43:02.408Z,100972.85
2019-05-29T20:45:29.493Z,100975.55
2019-05-29T20:47:56.540Z,100975.66
2019-05-29T20:50:24.777Z,100975.93
2019-05-29T20:52:53.042Z,100977.36
2019-05-29T20:55:20.112Z,100976.17
2019-05-29T20:57:57.201Z,100983.14
2019-05-29T21:00:25.860Z,100980.31
2019-05-29T21:02:53.078Z,100983.86
2019-05-29T21:05:21.740Z,100986.19
2019-05-29T21:07:48.838Z,100985.98
2019-05-29T21:10:16.000Z,100986.96
2019-05-29T21:12:47.454Z,100985.50
2019-05-29T21:15:15.887Z,100986.80
2019-05-29T21:17:49.680Z,100981.53
2019-05-29T21:20:16.819Z,100989.63
2019-05-29T21:22:44.958Z,100991.19
2019-05-29T21:25:17.090Z,100999.67
2019-05-29T21:27:45.397Z,101004.02
2019-05-29T21:30:25.311Z,101009.19
2019-05-29T21:32:52.938Z,101004.91
2019-05-29T21:35:20.020Z,101005.17
2019-05-29T21:37:47.494Z,101012.08
2019-05-29T21:40:16.827Z,101015.67
2019-05-29T21:42:47.004Z,101017.46
2019-05-29T21:45:14.850Z,101016.87
2019-05-29T21:47:43.578Z,101011.27
2019-05-29T21:50:11.211Z,101020.14
2019-05-29T21:52:39.469Z,101013.55
2019-05-29T21:55:09.967Z,101015.69
2019-05-29T21:57:43.901Z,101016.63
2019-05-29T22:00:13.805Z,101015.83
2019-05-29T22:02:44.507Z,101019.94
2019-05-29T22:05:26.432Z,101024.89
2019-05-29T22:08:02.233Z,101025.34
2019-05-29T22:10:29.958Z,101026.34
2019-05-29T22:12:58.550Z,101028.49
2019-05-29T22:15:25.940Z,101025.34
2019-05-29T22:17:53.200Z,101026.99
2019-05-29T22:20:20.243Z,101033.44
2019-05-29T22:22:47.330Z,101029.14
2019-05-29T22:25:14.713Z,101029.25
2019-05-29T22:27:42.876Z,101035.74
2019-05-29T22:30:10.055Z,101032.98
2019-05-29T22:32:37.118Z,101034.83
2019-05-29T22:35:04.534Z,101038.09
2019-05-29T22:37:32.116Z,101033.33
2019-05-29T22:39:59.632Z,101029.91
2019-05-29T22:42:28.655Z,101029.15
2019-05-29T22:44:55.920Z,101029.26
2019-05-29T22:47:23.169Z,101026.34
2019-05-29T22:49:51.572Z,101023.08
2019-05-29T22:52:18.903Z,101029.14
2019-05-29T22:54:45.926Z,101033.72
2019-05-29T22:57:12.997Z,101024.66
2019-05-29T22:59:40.229Z,101029.06
2019-05-29T23:02:09.864Z,101028.88
2019-05-29T23:04:37.020Z,101032.83
2019-05-29T23:07:05.248Z,101035.13
2019-05-29T23:09:32.261Z,101034.86
2019-05-29T23:12:00.490Z,101033.75
2019-05-29T23:14:27.611Z,101042.77
2019-05-29T23:16:54.678Z,101042.87
2019-05-29T23:19:21.848Z,101038.61
2019-05-29T23:21:49.517Z,101036.55
2019-05-29T23:24:17.691Z,101034.97
2019-05-29T23:26:44.861Z,101036.00
2019-05-29T23:29:11.924Z,101032.34
2019-05-29T23:31:39.042Z,101035.70
2019-05-29T23:34:06.101Z,101038.95
2019-05-29T23:36:35.258Z,101032.70
2019-05-29T23:39:03.984Z,101033.44
2019-05-29T23:41:31.038Z,101032.34
2019-05-29T23:43:59.306Z,101029.30
2019-05-29T23:46:26.606Z,101030.77
2019-05-29T23:48:53.654Z,101027.92
2019-05-29T23:51:20.737Z,101031.75
2019-05-29T23:53:49.980Z,101033.24
2019-05-29T23:56:17.301Z,101033.23
2019-05-29T23:58:44.498Z,101030.30
